Terminal Aerodrome Forecast
Issued by NWS

Current Version | Previous Version | Text Only | Print | Product List | Glossary On
Versions: 1 2 3 4 5 6 7 8 9 10 11 12 13
000
FTUS43 KILX 292300
TAFDEC
TAF
KDEC 292320Z 3000/3024 24011KT P6SM BKN050
     FM300300 29008KT P6SM SCT050
     FM301400 25008KT P6SM SCT250
     FM301800 25012G20KT P6SM BKN250=

USA.gov is the U.S. government's official web portal to all federal, state and local government web resources and services.